Time;durP1;ratioP1;P1;durP2;ratioP2;P2;SDS_P1;SDS_P2;PMS_P1;PMS_P2;Temp;Humidity;BMP_temperature;BMP_pressure;BME280_temperature;BME280_humidity;BME280_pressure;Samples;Min_cycle;Max_cycle;Signal;HPM_P1;HPM_P2
2021/03/20 05:00:21;;;;;;;7.40;2.45;;;0.40;99.90;;;;;;6164089;23;21349;31
2021/03/20 05:02:51;;;;;;;9.50;2.90;;;0.50;99.90;;;;;;6129538;23;20895;-84
2021/03/20 05:05:35;;;;;;;8.90;3.40;;;0.50;99.90;;;;;;6132630;23;20584;-85
2021/03/20 05:08:06;;;;;;;7.87;2.70;;;0.50;99.90;;;;;;6134467;23;20145;-84
2021/03/20 05:10:44;;;;;;;7.23;2.93;;;0.50;99.90;;;;;;6163378;23;20171;-83
2021/03/20 05:13:30;;;;;;;7.50;3.00;;;0.60;99.90;;;;;;6189331;23;20207;-86
2021/03/20 05:16:05;;;;;;;7.70;2.90;;;0.60;99.90;;;;;;6188842;23;20488;-85
2021/03/20 05:18:31;;;;;;;7.47;3.13;;;0.60;99.90;;;;;;6188610;23;20140;-83
2021/03/20 05:20:57;;;;;;;8.13;2.70;;;0.60;99.90;;;;;;6188838;23;20238;-83
2021/03/20 05:23:22;;;;;;;9.70;3.23;;;0.60;99.90;;;;;;6191160;23;20149;-83
2021/03/20 05:25:48;;;;;;;9.50;3.00;;;0.60;99.90;;;;;;6188380;23;20600;-83
2021/03/20 05:28:13;;;;;;;10.23;3.17;;;0.70;99.90;;;;;;6190524;23;20180;-84
2021/03/20 05:30:39;;;;;;;8.73;3.87;;;0.70;99.90;;;;;;6187554;23;20533;-83
2021/03/20 05:33:04;;;;;;;9.33;3.60;;;0.80;99.90;;;;;;6188513;23;20156;-82
2021/03/20 05:35:30;;;;;;;7.93;3.47;;;0.70;99.90;;;;;;6188139;23;20175;-83
2021/03/20 05:37:56;;;;;;;11.67;4.93;;;0.80;99.90;;;;;;6188305;23;20184;-82
2021/03/20 05:40:28;;;;;;;10.60;3.97;;;0.80;99.90;;;;;;6186561;23;20160;-83
2021/03/20 05:43:32;;;;;;;10.23;4.07;;;0.90;99.90;;;;;;6190301;23;20148;-83
2021/03/20 05:46:21;;;;;;;9.67;3.73;;;0.90;99.90;;;;;;6159840;23;20525;-81
2021/03/20 05:49:23;;;;;;;10.37;3.97;;;0.90;99.90;;;;;;6161343;23;20148;-85
2021/03/20 05:51:56;;;;;;;12.10;4.37;;;0.90;99.90;;;;;;6162244;23;20195;-82
2021/03/20 05:54:35;;;;;;;15.30;4.47;;;1.00;99.90;;;;;;6162423;23;20168;-82
2021/03/20 05:57:11;;;;;;;11.83;4.20;;;1.00;99.90;;;;;;6162986;23;20145;-85
2021/03/20 06:00:10;;;;;;;11.33;4.97;;;1.10;99.90;;;;;;6190431;23;20145;-84
2021/03/20 06:03:00;;;;;;;12.27;5.00;;;1.10;99.90;;;;;;6157522;23;20198;-83
2021/03/20 06:05:32;;;;;;;9.10;4.43;;;1.10;99.90;;;;;;6159526;23;20191;-81
2021/03/20 06:08:20;;;;;;;11.60;4.57;;;1.20;99.90;;;;;;6160853;23;20152;-82
2021/03/20 06:11:33;;;;;;;13.73;4.73;;;1.20;99.90;;;;;;6160697;23;20683;-82
2021/03/20 06:14:21;;;;;;;13.93;5.07;;;1.30;99.90;;;;;;6121337;23;20156;-82
2021/03/20 06:17:01;;;;;;;11.53;5.07;;;1.30;99.90;;;;;;6162615;23;20145;-84
2021/03/20 06:19:51;;;;;;;14.07;6.33;;;1.30;99.90;;;;;;6163045;23;20180;-82
2021/03/20 06:22:55;;;;;;;15.60;6.87;;;1.30;99.90;;;;;;6161561;23;20180;-81
2021/03/20 06:25:49;;;;;;;16.10;6.30;;;1.40;99.90;;;;;;6186172;23;20230;-80
2021/03/20 06:28:20;;;;;;;15.03;6.03;;;1.50;99.90;;;;;;6161320;23;20148;-81
2021/03/20 06:30:55;;;;;;;17.20;6.77;;;1.50;99.90;;;;;;6185953;23;20192;-84
2021/03/20 06:33:28;;;;;;;17.87;7.03;;;1.60;99.90;;;;;;6186229;23;20148;-82
2021/03/20 06:36:08;;;;;;;17.43;8.20;;;1.70;99.90;;;;;;6186075;23;20219;-82
2021/03/20 06:38:33;;;;;;;17.57;8.20;;;1.70;99.90;;;;;;6185671;23;20148;-81
2021/03/20 06:41:10;;;;;;;18.43;8.37;;;1.70;99.90;;;;;;6161083;23;20632;-81
2021/03/20 06:43:42;;;;;;;16.13;7.37;;;1.70;99.90;;;;;;6186197;23;20178;-82
2021/03/20 06:46:21;;;;;;;26.27;11.40;;;1.80;99.90;;;;;;6183266;23;20670;-82
2021/03/20 06:48:47;;;;;;;23.73;8.73;;;1.90;99.90;;;;;;6186636;23;20187;-82
2021/03/20 06:51:14;;;;;;;19.77;8.70;;;1.90;99.90;;;;;;6185063;23;20462;-82
2021/03/20 06:54:00;;;;;;;15.67;7.70;;;2.00;99.90;;;;;;6184982;23;20187;-83
2021/03/20 06:56:30;;;;;;;15.47;7.87;;;2.00;99.90;;;;;;6160533;23;20280;-82
2021/03/20 06:58:57;;;;;;;19.03;8.53;;;2.10;99.90;;;;;;6160555;23;20199;-83
2021/03/20 07:01:48;;;;;;;24.03;10.20;;;2.20;99.90;;;;;;6160217;23;20211;-84
2021/03/20 07:04:35;;;;;;;15.47;8.20;;;2.30;99.90;;;;;;6134207;23;20156;-82
2021/03/20 07:07:30;;;;;;;20.43;8.53;;;2.40;99.90;;;;;;6160932;23;20235;-82
2021/03/20 07:09:57;;;;;;;18.80;8.90;;;2.50;99.90;;;;;;6159966;23;20176;-81
2021/03/20 07:12:25;;;;;;;12.80;6.40;;;2.50;99.90;;;;;;6187367;23;20192;-82
2021/03/20 07:14:59;;;;;;;21.43;9.63;;;2.50;99.90;;;;;;6185974;23;20163;-82
2021/03/20 07:17:41;;;;;;;18.30;8.47;;;2.60;99.90;;;;;;6187397;23;20147;-85
2021/03/20 07:20:13;;;;;;;20.20;9.50;;;2.70;99.90;;;;;;6189741;23;20495;-85
2021/03/20 07:22:49;;;;;;;16.40;9.60;;;2.80;99.90;;;;;;6161600;23;20176;-83
2021/03/20 07:25:31;;;;;;;19.60;9.33;;;2.80;99.90;;;;;;6186310;23;20206;-84
2021/03/20 07:28:08;;;;;;;17.73;8.40;;;2.90;99.90;;;;;;6186021;23;20141;-82
2021/03/20 07:30:43;;;;;;;18.90;9.90;;;2.90;99.90;;;;;;6160762;23;20524;-82
2021/03/20 07:33:29;;;;;;;17.73;9.70;;;3.10;99.90;;;;;;6187881;23;20128;-82
2021/03/20 07:36:14;;;;;;;20.83;8.80;;;3.20;99.90;;;;;;6185957;23;20558;-83
2021/03/20 07:38:40;;;;;;;17.70;8.73;;;3.30;99.90;;;;;;6164680;23;20529;-86
2021/03/20 07:41:08;;;;;;;15.50;7.73;;;3.30;99.90;;;;;;6191225;23;20178;-86
2021/03/20 07:43:34;;;;;;;17.50;8.17;;;3.30;99.90;;;;;;6190857;23;20214;-83
2021/03/20 07:46:16;;;;;;;14.23;6.73;;;3.40;99.90;;;;;;6190425;23;20619;-85
2021/03/20 07:48:43;;;;;;;11.90;5.97;;;3.50;99.90;;;;;;6190472;23;20156;-85
2021/03/20 07:51:16;;;;;;;11.67;5.87;;;3.60;99.90;;;;;;6192366;23;20517;-83
2021/03/20 07:53:49;;;;;;;10.37;5.40;;;3.60;99.90;;;;;;6190318;23;20200;-83
2021/03/20 07:56:36;;;;;;;11.20;4.50;;;3.70;99.90;;;;;;6190929;23;20149;-83
2021/03/20 07:59:16;;;;;;;10.67;4.53;;;3.80;99.90;;;;;;6193190;23;20663;-86
2021/03/20 08:01:46;;;;;;;8.80;3.27;;;3.80;99.90;;;;;;6192502;23;20505;-83
2021/03/20 08:04:12;;;;;;;7.50;3.50;;;3.80;99.90;;;;;;6188421;23;20137;-84
2021/03/20 08:06:37;;;;;;;9.97;3.30;;;3.80;99.90;;;;;;6186132;23;20575;-83
2021/03/20 08:09:25;;;;;;;10.53;4.13;;;3.90;99.90;;;;;;6161375;23;20156;-84
2021/03/20 08:12:05;;;;;;;12.43;3.17;;;3.90;99.90;;;;;;6185864;23;20186;-84
2021/03/20 08:14:34;;;;;;;10.30;3.00;;;4.00;99.90;;;;;;6186874;23;20681;-83
2021/03/20 08:17:00;;;;;;;10.47;3.13;;;4.00;99.90;;;;;;6187891;23;20144;-82
2021/03/20 08:19:32;;;;;;;9.77;3.10;;;4.10;99.90;;;;;;6185658;23;20183;-85
2021/03/20 08:22:22;;;;;;;6.07;2.13;;;4.10;99.90;;;;;;6161006;23;20183;-83
2021/03/20 08:25:02;;;;;;;6.47;2.43;;;4.10;99.90;;;;;;6161656;23;20607;-83
2021/03/20 08:27:36;;;;;;;8.43;3.33;;;4.20;99.90;;;;;;6192080;23;20160;-84
2021/03/20 08:30:23;;;;;;;9.00;2.87;;;4.20;99.90;;;;;;6191667;23;20207;-84
2021/03/20 08:32:58;;;;;;;8.50;2.93;;;4.30;99.90;;;;;;6191679;23;20236;-83
2021/03/20 08:35:56;;;;;;;8.52;3.42;;;4.30;99.90;;;;;;6168187;23;20390;-84
2021/03/20 08:38:59;;;;;;;5.90;2.70;;;4.30;99.90;;;;;;6196585;23;20132;-86
2021/03/20 08:41:32;;;;;;;7.80;2.93;;;4.40;99.90;;;;;;6074954;23;20175;-86
2021/03/20 08:44:16;;;;;;;8.27;3.37;;;4.50;99.90;;;;;;6074601;23;20143;-83
2021/03/20 08:47:21;;;;;;;7.07;2.90;;;4.60;99.90;;;;;;6148264;23;20188;-85
2021/03/20 08:50:11;;;;;;;9.40;3.60;;;4.50;99.90;;;;;;6074348;23;20187;-84
2021/03/20 08:53:14;;;;;;;6.07;2.70;;;4.50;99.90;;;;;;6184937;23;20188;-85
2021/03/20 08:56:10;;;;;;;7.03;3.17;;;4.50;99.90;;;;;;6164860;23;20348;-85
2021/03/20 08:58:51;;;;;;;6.33;2.97;;;4.60;99.90;;;;;;6172757;23;20156;-85
2021/03/20 09:01:26;;;;;;;7.17;3.40;;;4.50;99.90;;;;;;6188837;23;20183;-85
2021/03/20 09:03:55;;;;;;;6.83;3.10;;;4.50;99.90;;;;;;6192687;23;20151;-87
2021/03/20 09:06:34;;;;;;;9.20;3.20;;;4.50;99.90;;;;;;6166997;23;20247;-84
2021/03/20 09:09:27;;;;;;;8.80;4.17;;;4.50;99.90;;;;;;6184775;23;20228;-84
2021/03/20 09:12:04;;;;;;;9.10;4.57;;;4.50;99.90;;;;;;6186406;23;20176;-85
2021/03/20 09:14:37;;;;;;;9.10;4.50;;;4.60;99.90;;;;;;6191145;23;20628;-86
2021/03/20 09:17:29;;;;;;;10.03;4.00;;;4.60;99.90;;;;;;6189006;23;20133;-84
2021/03/20 09:20:18;;;;;;;11.53;4.40;;;4.70;99.90;;;;;;6187036;23;20149;-83
2021/03/20 09:22:45;;;;;;;13.20;4.00;;;4.70;99.90;;;;;;6167330;23;20176;-85
2021/03/20 09:25:19;;;;;;;10.30;4.33;;;4.70;99.90;;;;;;6192013;23;20604;-83
2021/03/20 09:28:15;;;;;;;10.67;4.57;;;4.70;99.90;;;;;;6183372;23;20534;-83
2021/03/20 09:30:49;;;;;;;15.63;7.43;;;4.70;99.90;;;;;;6155670;23;20976;-83
2021/03/20 09:33:29;;;;;;;17.43;9.57;;;4.70;99.90;;;;;;6179427;23;20181;-82
2021/03/20 09:35:56;;;;;;;13.20;6.40;;;4.80;99.90;;;;;;6156177;23;20172;-83
2021/03/20 09:38:43;;;;;;;17.07;7.33;;;4.80;99.90;;;;;;6184879;23;20188;-83
2021/03/20 09:41:13;;;;;;;12.90;7.47;;;4.90;99.90;;;;;;6184852;23;20184;-84
2021/03/20 09:43:41;;;;;;;12.97;7.00;;;4.90;99.90;;;;;;6161932;23;20152;-83
2021/03/20 09:46:31;;;;;;;10.27;5.13;;;4.90;99.90;;;;;;6163618;23;20160;-83
2021/03/20 09:48:57;;;;;;;10.17;5.47;;;4.90;99.90;;;;;;6162639;23;20168;-83
2021/03/20 09:51:45;;;;;;;10.70;5.43;;;4.90;99.90;;;;;;6186637;23;20188;-82
2021/03/20 09:59:42;;;;;;;12.37;5.47;;;4.90;99.90;;;;;;6188914;23;20141;-83
2021/03/20 10:02:10;;;;;;;17.77;6.90;;;4.90;99.90;;;;;;6162025;23;20651;-83
2021/03/20 10:04:36;;;;;;;12.57;6.27;;;4.80;99.90;;;;;;6161895;23;20163;-83
2021/03/20 10:07:20;;;;;;;13.30;6.07;;;4.80;99.90;;;;;;6188380;23;20157;-83
2021/03/20 10:10:10;;;;;;;13.07;6.43;;;4.90;99.90;;;;;;6161763;23;20180;-84
2021/03/20 10:12:45;;;;;;;14.07;6.70;;;4.90;99.90;;;;;;6161576;23;20954;-84
2021/03/20 10:15:19;;;;;;;10.53;6.50;;;4.90;99.90;;;;;;6162666;23;20155;-83
2021/03/20 10:18:04;;;;;;;14.97;7.00;;;4.90;99.90;;;;;;6162837;23;20211;-83
2021/03/20 10:20:51;;;;;;;13.57;6.13;;;4.90;99.90;;;;;;6160886;23;20199;-82
2021/03/20 10:23:28;;;;;;;14.67;6.53;;;4.90;99.90;;;;;;6161435;23;20198;-83
2021/03/20 10:25:57;;;;;;;16.97;7.40;;;4.90;99.90;;;;;;6187052;23;20173;-83
2021/03/20 10:28:29;;;;;;;13.60;6.30;;;4.90;99.90;;;;;;6165565;23;20497;-84
2021/03/20 10:31:02;;;;;;;15.60;7.13;;;4.80;99.90;;;;;;6192612;23;20185;-83
2021/03/20 10:33:32;;;;;;;12.57;5.90;;;4.80;99.90;;;;;;6190339;23;20159;-83
2021/03/20 10:36:14;;;;;;;12.10;6.57;;;4.80;99.90;;;;;;6186829;23;20152;-83
2021/03/20 10:38:40;;;;;;;13.40;6.63;;;4.80;99.90;;;;;;6192577;23;20137;-85
2021/03/20 10:41:11;;;;;;;11.43;5.93;;;4.80;99.90;;;;;;6193411;23;20173;-82
2021/03/20 10:44:05;;;;;;;12.60;7.27;;;4.80;99.90;;;;;;6189038;23;20171;-84
2021/03/20 10:46:34;;;;;;;15.77;6.20;;;4.80;99.90;;;;;;6173158;23;20171;-85
2021/03/20 10:49:04;;;;;;;12.60;5.70;;;4.80;99.90;;;;;;6191991;23;20163;-84
2021/03/20 10:51:38;;;;;;;9.43;4.33;;;4.90;99.90;;;;;;6185837;23;20620;-83
2021/03/20 10:54:33;;;;;;;13.17;5.20;;;4.90;99.90;;;;;;6185626;23;20144;-83
2021/03/20 10:57:06;;;;;;;11.13;4.90;;;4.90;99.90;;;;;;6157085;23;20531;-84
2021/03/20 10:59:35;;;;;;;13.63;5.87;;;4.90;99.90;;;;;;6190816;23;20596;-84
2021/03/20 11:02:25;;;;;;;10.77;4.80;;;4.90;99.90;;;;;;6164677;23;20198;-85
2021/03/20 11:04:53;;;;;;;8.63;4.80;;;5.00;99.90;;;;;;6190468;23;20599;-82
2021/03/20 11:07:23;;;;;;;10.60;5.27;;;5.00;99.90;;;;;;6185874;23;20190;-80
2021/03/20 11:09:49;;;;;;;8.90;4.13;;;5.00;99.90;;;;;;6186687;23;20175;-82
2021/03/20 11:12:25;;;;;;;12.30;4.33;;;5.00;99.90;;;;;;6189317;23;20175;-84
2021/03/20 11:20:22;;;;;;;11.73;4.80;;;5.00;99.90;;;;;;6177113;23;20430;-82
